Terminal Aerodrome Forecast
Issued by NWS

Home | Current Version | Previous Version | Text Only | Print | Product List | Glossary On
Versions: 1 2 3 4 5 6 7 8 9 10 11 12 13
000
FTUS46 KMTR 282300
TAFOAK
TAF
KOAK 282320Z 2900/3006 29005KT P6SM BKN200
     FM290900 VRB03KT 6SM BR FEW009 SCT200
     FM291800 26005KT 6SM HZ SCT200
     FM300000 31006KT P6SM FEW200=

USA.gov is the U.S. government's official web portal to all federal, state and local government web resources and services.